Lontzen, Belgium
Current Conditions -  °F | °C
As of 11:25 AM on Monday 22 Dec 2014 (Local Time) from EBLB Reporting Station
Overcast Overcast  
Wind Chill: 33°   Ceiling: 500
Heat Index: 41°   Visibility: 2.1mi
Dew Point: 39°   Wind: 15mph
Humidity: 93%   Direction: 220°SW
Pressure: 30.21"   Gusts: 26mph
Location:  50.68°N, 6.01°E
Report Text: EBLB 221025Z AUTO 22013G23KT 3500 SCT003/// BKN005/// OVC007/// 05/04 Q1023 YLO
Loading
Personal Weather Stations






























Interactive Weather Map New forecast layout! Learn more

10-Day Weather Forecast

Advertisements
Track Severe Weather on mobile